createdAt,value
2022-10-17T00:01:24.331Z,62.08
2022-10-17T00:03:53.105Z,62.08
2022-10-17T00:06:24.096Z,62.14
2022-10-17T00:08:53.018Z,62.27
2022-10-17T00:11:23.280Z,62.29
2022-10-17T00:13:56.021Z,62.31
2022-10-17T00:16:27.469Z,62.37
2022-10-17T00:18:57.169Z,62.38
2022-10-17T00:21:25.965Z,62.44
2022-10-17T00:23:55.037Z,62.48
2022-10-17T00:26:24.215Z,62.34
2022-10-17T00:28:53.562Z,62.35
2022-10-17T00:31:24.490Z,62.29
2022-10-17T00:33:53.556Z,62.40
2022-10-17T00:36:25.507Z,62.51
2022-10-17T00:38:57.783Z,62.52
2022-10-17T00:41:31.076Z,62.59
2022-10-17T00:44:05.632Z,62.53
2022-10-17T00:46:38.299Z,62.62
2022-10-17T00:49:11.180Z,62.46
2022-10-17T00:51:46.984Z,62.53
2022-10-17T00:54:21.588Z,62.66
2022-10-17T00:56:52.145Z,62.69
2022-10-17T00:59:22.321Z,63.07
2022-10-17T01:01:59.898Z,63.19
2022-10-17T01:04:28.719Z,63.54
2022-10-17T01:06:57.593Z,63.80
2022-10-17T01:09:27.276Z,64.23
2022-10-17T01:12:25.993Z,64.59
2022-10-17T01:15:06.920Z,64.87
2022-10-17T01:18:05.976Z,65.11
2022-10-17T01:20:38.466Z,65.27
2022-10-17T01:23:17.984Z,65.38
2022-10-17T01:26:19.302Z,65.20
2022-10-17T01:29:24.900Z,65.06
2022-10-17T01:32:00.369Z,64.81
2022-10-17T01:34:30.262Z,64.62
2022-10-17T01:37:03.075Z,64.51
2022-10-17T01:39:47.743Z,64.31
2022-10-17T01:42:25.663Z,64.34
2022-10-17T01:45:29.833Z,64.36
2022-10-17T01:48:02.546Z,64.66
2022-10-17T01:50:37.476Z,64.71
2022-10-17T01:53:33.753Z,65.15
2022-10-17T01:56:07.181Z,65.57
2022-10-17T01:58:44.257Z,65.76
2022-10-17T02:01:14.956Z,65.74
2022-10-17T02:03:48.084Z,65.53
2022-10-17T02:06:20.408Z,65.50
2022-10-17T02:08:51.504Z,65.39
2022-10-17T02:11:25.022Z,65.74
2022-10-17T02:14:22.244Z,65.60
2022-10-17T02:17:08.567Z,65.85
2022-10-17T02:20:10.667Z,66.11
2022-10-17T02:22:52.457Z,66.12
2022-10-17T02:25:26.346Z,66.33
2022-10-17T02:28:19.169Z,66.43
2022-10-17T02:30:57.511Z,66.56
2022-10-17T02:33:31.784Z,66.86
2022-10-17T02:36:07.236Z,66.91
2022-10-17T02:38:40.772Z,66.92
2022-10-17T02:41:13.606Z,67.02
2022-10-17T02:43:45.237Z,67.02
2022-10-17T02:46:21.049Z,67.28
2022-10-17T02:49:00.530Z,67.58
2022-10-17T02:51:42.362Z,67.47
2022-10-17T02:54:20.171Z,67.16
2022-10-17T02:57:13.364Z,67.02
2022-10-17T02:59:45.704Z,66.85
2022-10-17T03:02:14.513Z,66.73
2022-10-17T03:04:47.158Z,66.53
2022-10-17T03:07:16.194Z,66.54
2022-10-17T03:09:50.267Z,66.53
2022-10-17T03:12:17.967Z,66.40
2022-10-17T03:14:50.605Z,66.49
2022-10-17T03:17:20.893Z,66.45
2022-10-17T03:19:50.141Z,66.48
2022-10-17T03:22:22.580Z,66.47
2022-10-17T03:24:52.567Z,66.62
2022-10-17T03:27:21.941Z,66.78
2022-10-17T03:29:50.345Z,67.13
2022-10-17T03:32:18.709Z,67.16
2022-10-17T03:34:47.857Z,67.59
2022-10-17T03:37:16.754Z,67.72
2022-10-17T03:39:45.090Z,67.78
2022-10-17T03:42:13.012Z,67.81
2022-10-17T03:44:40.999Z,67.72
2022-10-17T03:47:11.926Z,67.70
2022-10-17T03:49:43.154Z,67.68
2022-10-17T03:52:15.182Z,67.45
2022-10-17T03:54:44.201Z,67.33
2022-10-17T03:57:13.005Z,67.36
2022-10-17T03:59:40.747Z,67.40
2022-10-17T04:02:14.137Z,67.57
2022-10-17T04:04:43.246Z,67.59
2022-10-17T04:07:11.083Z,67.52
2022-10-17T04:09:41.272Z,67.57
2022-10-17T04:12:13.378Z,67.42
2022-10-17T04:14:42.206Z,67.07
2022-10-17T04:17:10.950Z,66.90
2022-10-17T04:19:41.793Z,66.67
2022-10-17T04:22:09.883Z,66.58
2022-10-17T04:24:41.373Z,66.39
2022-10-17T04:27:22.472Z,66.28
2022-10-17T04:29:50.557Z,66.36
2022-10-17T04:32:22.552Z,66.41
2022-10-17T04:34:55.655Z,66.34
2022-10-17T04:37:23.970Z,66.34
2022-10-17T04:39:54.397Z,66.28
2022-10-17T04:42:22.534Z,66.40
2022-10-17T04:44:52.158Z,66.54
2022-10-17T04:47:21.296Z,66.79
2022-10-17T04:49:50.199Z,66.99
2022-10-17T04:52:19.250Z,67.27
2022-10-17T04:54:51.672Z,67.53
2022-10-17T04:57:20.189Z,67.74
2022-10-17T05:00:00.506Z,67.86
2022-10-17T05:02:48.134Z,68.13
2022-10-17T05:05:16.174Z,68.30
2022-10-17T05:07:44.761Z,68.26
2022-10-17T05:10:17.633Z,68.36
2022-10-17T05:12:52.028Z,68.28
2022-10-17T05:15:23.040Z,68.11
2022-10-17T05:17:55.133Z,67.92
2022-10-17T05:20:27.119Z,67.68
2022-10-17T05:22:56.197Z,67.67
2022-10-17T05:25:25.506Z,67.83
2022-10-17T05:27:55.467Z,67.82
2022-10-17T05:30:24.596Z,67.81
2022-10-17T05:32:56.017Z,67.80
2022-10-17T05:35:23.989Z,67.84
2022-10-17T05:37:53.849Z,67.67
2022-10-17T05:40:24.987Z,67.42
2022-10-17T05:42:54.624Z,67.34
2022-10-17T05:45:23.810Z,67.03
2022-10-17T05:47:55.509Z,66.63
2022-10-17T05:50:26.092Z,66.74
2022-10-17T05:53:04.995Z,66.78
2022-10-17T05:55:37.971Z,66.99
2022-10-17T05:58:07.313Z,67.19
2022-10-17T06:00:39.095Z,67.51
2022-10-17T06:03:09.849Z,67.50
2022-10-17T06:05:39.989Z,67.53
2022-10-17T06:08:08.048Z,67.76
2022-10-17T06:10:40.430Z,67.71
2022-10-17T06:13:09.378Z,67.72
2022-10-17T06:15:38.455Z,67.77
2022-10-17T06:18:09.698Z,67.77
2022-10-17T06:20:42.626Z,67.77
2022-10-17T06:23:14.412Z,67.86
2022-10-17T06:25:59.832Z,67.86
2022-10-17T06:28:28.059Z,67.65
2022-10-17T06:30:56.389Z,67.55
2022-10-17T06:33:25.604Z,67.44
2022-10-17T06:35:56.379Z,67.28
2022-10-17T06:38:26.774Z,67.03
2022-10-17T06:41:10.187Z,66.75
2022-10-17T06:43:39.737Z,66.46
2022-10-17T06:46:26.904Z,66.18
2022-10-17T06:48:58.277Z,66.03
2022-10-17T06:51:32.281Z,65.77
2022-10-17T06:54:03.185Z,65.57
2022-10-17T06:56:49.691Z,65.45
2022-10-17T06:59:37.043Z,65.40
2022-10-17T07:02:13.783Z,65.13
2022-10-17T07:04:42.815Z,64.91
2022-10-17T07:07:15.696Z,64.50
2022-10-17T07:09:43.642Z,64.09
2022-10-17T07:12:12.880Z,63.50
2022-10-17T07:14:47.227Z,62.80
2022-10-17T07:17:19.672Z,61.44
2022-10-17T07:19:48.737Z,59.87
2022-10-17T07:22:17.810Z,58.57
2022-10-17T07:27:39.559Z,55.02
2022-10-17T07:30:10.381Z,53.78
2022-10-17T07:32:49.688Z,52.60
2022-10-17T07:35:18.445Z,50.84
2022-10-17T07:38:51.582Z,47.93
2022-10-17T07:41:21.945Z,45.24
2022-10-17T07:43:56.630Z,44.22
2022-10-17T07:46:34.595Z,43.66
2022-10-17T07:49:13.368Z,42.21
2022-10-17T07:51:53.245Z,42.40
2022-10-17T07:54:23.372Z,41.86
2022-10-17T07:56:51.438Z,41.01
2022-10-17T07:59:20.740Z,40.50
2022-10-17T08:01:51.573Z,40.08
2022-10-17T08:04:19.791Z,39.01
2022-10-17T08:06:50.842Z,38.95
2022-10-17T08:09:24.347Z,37.99
2022-10-17T08:11:52.737Z,37.86
2022-10-17T08:14:25.282Z,37.71
2022-10-17T08:16:58.111Z,37.70
2022-10-17T08:19:32.189Z,37.52
2022-10-17T08:22:05.504Z,36.83
2022-10-17T08:24:33.663Z,35.93
2022-10-17T08:27:04.120Z,35.31
2022-10-17T08:29:33.232Z,34.90
2022-10-17T08:32:05.517Z,34.72
2022-10-17T08:34:37.588Z,33.59
2022-10-17T08:37:05.798Z,33.52
2022-10-17T08:39:34.137Z,33.44
2022-10-17T08:42:06.101Z,33.07
2022-10-17T08:45:11.175Z,31.87
2022-10-17T08:47:43.592Z,32.35
2022-10-17T08:50:24.334Z,32.05
2022-10-17T08:53:02.881Z,31.44
2022-10-17T08:55:42.943Z,30.80
2022-10-17T08:58:19.175Z,30.85
2022-10-17T09:01:10.401Z,31.00
2022-10-17T09:04:08.017Z,30.37
2022-10-17T09:06:48.879Z,29.66
2022-10-17T09:09:20.291Z,29.61
2022-10-17T09:12:31.758Z,30.18
2022-10-17T09:15:21.898Z,29.50
2022-10-17T09:18:17.608Z,30.46
2022-10-17T09:20:54.433Z,30.79
2022-10-17T09:23:27.547Z,31.15
2022-10-17T09:25:59.282Z,30.13
2022-10-17T09:28:38.727Z,30.37
2022-10-17T09:31:24.933Z,29.63
2022-10-17T09:33:55.475Z,29.03
2022-10-17T09:36:29.557Z,28.71
2022-10-17T09:39:03.180Z,28.45
2022-10-17T09:41:47.253Z,28.33
2022-10-17T09:44:22.994Z,27.63
2022-10-17T09:47:13.476Z,28.23
2022-10-17T09:49:44.437Z,27.38
2022-10-17T09:52:20.883Z,27.53
2022-10-17T09:55:00.654Z,27.89
2022-10-17T09:58:01.325Z,27.58
2022-10-17T10:00:34.732Z,26.71
2022-10-17T10:03:24.949Z,27.02
2022-10-17T10:06:12.518Z,27.28
2022-10-17T10:08:50.112Z,26.86
2022-10-17T10:11:25.791Z,26.47
2022-10-17T10:14:13.728Z,26.34
2022-10-17T10:16:44.080Z,26.39
2022-10-17T10:19:30.358Z,26.23
2022-10-17T10:22:07.078Z,26.07
2022-10-17T10:24:35.311Z,25.60
2022-10-17T10:27:04.316Z,25.64
2022-10-17T10:29:36.829Z,25.12
2022-10-17T10:32:28.333Z,24.38
2022-10-17T10:35:15.504Z,24.41
2022-10-17T10:37:50.122Z,24.28
2022-10-17T10:40:25.182Z,24.39
2022-10-17T10:42:59.220Z,24.92
2022-10-17T10:45:47.863Z,24.71
2022-10-17T10:48:25.384Z,24.61
2022-10-17T10:50:56.204Z,24.06
2022-10-17T10:53:45.590Z,23.79
2022-10-17T10:56:29.110Z,23.38
2022-10-17T10:59:09.555Z,23.30
2022-10-17T11:02:12.204Z,22.82
2022-10-17T11:04:42.524Z,22.53
2022-10-17T11:07:19.438Z,22.68
2022-10-17T11:10:11.497Z,22.41
2022-10-17T11:13:19.410Z,22.76
2022-10-17T11:16:21.794Z,23.10
2022-10-17T11:19:19.858Z,22.75
2022-10-17T11:22:05.925Z,23.05
2022-10-17T11:24:51.901Z,23.62
2022-10-17T11:27:20.279Z,23.52
2022-10-17T11:29:51.821Z,23.47
2022-10-17T11:33:12.581Z,23.52
2022-10-17T11:35:52.293Z,23.51
2022-10-17T11:38:43.091Z,22.68
2022-10-17T11:41:35.474Z,22.06
2022-10-17T11:44:22.384Z,21.61
2022-10-17T11:47:17.151Z,21.61
2022-10-17T11:49:53.242Z,21.64
2022-10-17T11:52:55.965Z,21.74
2022-10-17T11:55:34.931Z,21.46
2022-10-17T11:58:06.824Z,21.42
2022-10-17T12:01:07.851Z,21.68
2022-10-17T12:04:25.221Z,21.46
2022-10-17T12:07:14.540Z,21.40
2022-10-17T12:10:32.668Z,21.51
2022-10-17T12:17:32.999Z,21.27
2022-10-17T12:20:28.308Z,21.04
2022-10-17T12:23:15.065Z,21.13
2022-10-17T12:26:01.558Z,21.26
2022-10-17T12:29:29.379Z,21.32
2022-10-17T12:32:17.761Z,21.20
2022-10-17T12:35:28.660Z,21.12
2022-10-17T12:38:21.005Z,21.33
2022-10-17T12:40:59.751Z,21.59
2022-10-17T12:43:54.510Z,21.60
2022-10-17T12:46:53.680Z,21.52
2022-10-17T12:49:40.409Z,21.38
2022-10-17T12:52:11.465Z,21.31
2022-10-17T12:55:22.951Z,21.49
2022-10-17T12:57:59.204Z,21.24
2022-10-17T13:01:11.549Z,21.42
2022-10-17T13:03:52.063Z,21.44
2022-10-17T13:06:28.784Z,21.33
2022-10-17T13:09:08.905Z,21.38
2022-10-17T13:11:45.262Z,21.70
2022-10-17T13:14:16.769Z,21.71
2022-10-17T13:17:02.873Z,22.13
2022-10-17T13:19:45.947Z,22.33
2022-10-17T13:22:40.484Z,22.27
2022-10-17T13:25:24.491Z,22.36
2022-10-17T13:28:13.479Z,22.47
2022-10-17T13:30:49.830Z,22.74
2022-10-17T13:33:44.733Z,22.76
2022-10-17T13:36:22.517Z,23.04
2022-10-17T13:38:51.049Z,23.32
2022-10-17T13:41:35.740Z,23.18
2022-10-17T13:44:14.257Z,23.34
2022-10-17T13:46:45.968Z,23.78
2022-10-17T13:49:28.235Z,23.61
2022-10-17T13:52:12.091Z,23.87
2022-10-17T13:54:49.175Z,23.50
2022-10-17T13:57:32.310Z,23.70
2022-10-17T14:00:21.980Z,23.69
2022-10-17T14:02:50.300Z,23.92
2022-10-17T14:05:28.111Z,23.59
2022-10-17T14:08:11.969Z,23.50
2022-10-17T14:10:44.924Z,23.07
2022-10-17T14:13:27.020Z,23.33
2022-10-17T14:16:09.813Z,23.26
2022-10-17T14:18:42.207Z,23.44
2022-10-17T14:21:37.259Z,23.76
2022-10-17T14:24:32.433Z,24.15
2022-10-17T14:27:56.015Z,24.36
2022-10-17T14:31:35.698Z,24.86
2022-10-17T14:34:38.754Z,25.21
2022-10-17T14:37:43.752Z,25.43
2022-10-17T14:44:27.663Z,26.28
2022-10-17T14:47:41.830Z,26.37
2022-10-17T14:51:26.353Z,27.46
2022-10-17T14:54:40.876Z,28.59
2022-10-17T14:58:19.966Z,29.21
2022-10-17T15:05:59.083Z,32.43
2022-10-17T15:08:55.102Z,32.88
2022-10-17T15:15:05.377Z,34.31
2022-10-17T15:21:55.220Z,35.72
2022-10-17T15:30:29.982Z,36.83
2022-10-17T15:33:19.711Z,36.77
2022-10-17T15:36:15.644Z,36.89
2022-10-17T15:39:48.991Z,37.14
2022-10-17T15:42:58.619Z,37.25
2022-10-17T15:46:30.913Z,37.78
2022-10-17T15:52:28.489Z,38.29
2022-10-17T15:55:12.974Z,38.48
2022-10-17T16:02:47.026Z,38.99
2022-10-17T16:09:30.889Z,40.10
2022-10-17T16:12:29.655Z,40.38
2022-10-17T16:18:58.707Z,40.73
2022-10-17T16:21:51.870Z,40.92
2022-10-17T16:25:42.176Z,41.27
2022-10-17T16:48:10.122Z,42.53
2022-10-17T16:50:32.562Z,42.19
2022-10-17T17:13:51.658Z,43.94
2022-10-17T17:55:22.534Z,44.95
2022-10-17T18:05:29.270Z,45.61
2022-10-17T18:05:37.146Z,45.35
2022-10-17T18:11:31.200Z,46.17
2022-10-17T18:26:48.871Z,46.43
2022-10-17T18:39:57.540Z,46.44
2022-10-17T18:51:31.623Z,47.06
2022-10-17T18:59:20.962Z,47.21
2022-10-17T19:21:42.423Z,47.72
2022-10-17T19:24:45.109Z,48.09
2022-10-17T19:27:50.588Z,48.39
2022-10-17T19:30:58.657Z,48.46
2022-10-17T19:34:22.833Z,48.79
2022-10-17T19:37:42.873Z,48.85
2022-10-17T19:43:43.975Z,49.06
2022-10-17T19:47:21.873Z,49.20
2022-10-17T19:52:56.241Z,49.65
2022-10-17T19:55:33.456Z,49.74
2022-10-17T19:58:20.232Z,49.85
2022-10-17T20:08:16.699Z,50.41
2022-10-17T20:10:44.611Z,50.34
2022-10-17T20:13:19.199Z,50.39
2022-10-17T20:15:56.976Z,50.46
2022-10-17T20:18:32.993Z,50.46
2022-10-17T20:21:09.155Z,50.66
2022-10-17T20:23:38.569Z,50.92
2022-10-17T20:26:25.849Z,51.10
2022-10-17T20:29:02.511Z,51.14
2022-10-17T20:31:31.446Z,51.14
2022-10-17T20:34:04.402Z,51.29
2022-10-17T20:36:37.568Z,51.51
2022-10-17T20:39:07.340Z,51.73
2022-10-17T20:41:35.330Z,51.78
2022-10-17T20:44:04.703Z,51.91
2022-10-17T20:46:37.264Z,52.07
2022-10-17T20:49:15.279Z,52.17
2022-10-17T20:51:45.124Z,52.35
2022-10-17T20:54:19.034Z,52.43
2022-10-17T20:56:50.406Z,52.63
2022-10-17T20:59:20.345Z,52.78
2022-10-17T21:01:49.219Z,52.92
2022-10-17T21:07:06.267Z,53.27
2022-10-17T21:09:34.236Z,53.36
2022-10-17T21:12:08.144Z,53.35
2022-10-17T21:15:09.143Z,53.43
2022-10-17T21:17:39.109Z,53.54
2022-10-17T21:20:08.461Z,53.54
2022-10-17T21:22:36.445Z,53.81
2022-10-17T21:25:05.822Z,53.77
2022-10-17T21:27:33.679Z,53.90
2022-10-17T21:30:02.629Z,54.07
2022-10-17T21:32:47.190Z,54.18
2022-10-17T21:35:19.761Z,54.28
2022-10-17T21:37:48.792Z,54.47
2022-10-17T21:40:17.638Z,54.64
2022-10-17T21:42:45.360Z,54.65
2022-10-17T21:45:24.863Z,54.81
2022-10-17T21:48:12.282Z,54.89
2022-10-17T21:50:42.578Z,55.13
2022-10-17T21:53:15.175Z,55.08
2022-10-17T21:55:45.030Z,55.22
2022-10-17T21:58:12.885Z,55.20
2022-10-17T22:00:40.658Z,55.34
2022-10-17T22:03:09.624Z,55.33
2022-10-17T22:05:42.063Z,55.59
2022-10-17T22:08:19.066Z,55.64
2022-10-17T22:10:58.159Z,55.51
2022-10-17T22:13:27.242Z,55.48
2022-10-17T22:16:01.286Z,55.27
2022-10-17T22:18:31.209Z,55.17
2022-10-17T22:21:09.854Z,55.35
2022-10-17T22:23:38.554Z,55.47
2022-10-17T22:26:12.135Z,55.52
2022-10-17T22:28:42.056Z,55.68
2022-10-17T22:31:15.093Z,55.75
2022-10-17T22:33:43.013Z,55.82
2022-10-17T22:36:18.204Z,55.84
2022-10-17T22:38:48.552Z,55.84
2022-10-17T22:41:22.214Z,55.99
2022-10-17T22:43:54.037Z,56.05
2022-10-17T22:46:22.708Z,55.99
2022-10-17T22:48:52.523Z,56.11
2022-10-17T22:51:26.573Z,56.20
2022-10-17T22:53:55.431Z,56.31
2022-10-17T22:56:23.731Z,56.30
2022-10-17T22:58:53.549Z,56.23
2022-10-17T23:01:28.094Z,56.30
2022-10-17T23:04:38.950Z,56.21
2022-10-17T23:07:11.254Z,56.40
2022-10-17T23:09:45.033Z,56.39
2022-10-17T23:12:17.313Z,56.39
2022-10-17T23:14:46.389Z,56.50
2022-10-17T23:17:15.185Z,56.70
2022-10-17T23:19:52.903Z,56.73
2022-10-17T23:22:24.422Z,56.80
2022-10-17T23:24:57.014Z,56.76
2022-10-17T23:27:25.826Z,56.79
2022-10-17T23:29:53.717Z,56.82
2022-10-17T23:32:26.071Z,56.82
2022-10-17T23:35:02.057Z,56.78
2022-10-17T23:37:30.105Z,56.89
2022-10-17T23:39:59.021Z,56.91
2022-10-17T23:42:30.126Z,56.96
2022-10-17T23:45:04.574Z,56.92
2022-10-17T23:47:33.706Z,56.94
2022-10-17T23:50:02.743Z,56.91
2022-10-17T23:52:30.651Z,57.19
2022-10-17T23:54:59.242Z,57.20
2022-10-17T23:57:29.308Z,57.41
2022-10-17T23:59:58.470Z,57.33
